Time;durP1;ratioP1;P1;durP2;ratioP2;P2;SDS_P1;SDS_P2;PMS_P1;PMS_P2;Temp;Humidity;BMP_temperature;BMP_pressure;BME280_temperature;BME280_humidity;BME280_pressure;Samples;Min_cycle;Max_cycle;Signal;HPM_P1;HPM_P2
2022/03/30 00:01:18;;;;;;;;;;;;;;;12.02;57.83;100183.22;4417234;32;20463;-68
2022/03/30 00:03:44;;;;;;;;;;;;;;;12.63;56.33;100183.16;4414704;32;19964;-68
2022/03/30 00:06:09;;;;;;;;;;;;;;;11.80;58.22;100180.44;4414255;32;20056;-68
2022/03/30 00:08:35;;;;;;;;;;;;;;;11.65;59.04;100176.56;4414869;32;19946;-68
2022/03/30 00:11:00;;;;;;;;;;;;;;;11.57;59.71;100174.47;4416658;32;20044;-68
2022/03/30 00:13:26;;;;;;;;;;;;;;;11.48;59.97;100174.41;4414743;32;20500;-68
2022/03/30 00:15:52;;;;;;;;;;;;;;;11.51;59.51;100177.06;4415064;32;19972;-68
2022/03/30 00:18:18;;;;;;;;;;;;;;;11.46;59.76;100176.88;4413744;32;20398;-68
2022/03/30 00:20:44;;;;;;;;;;;;;;;11.43;60.03;100169.34;4415414;32;19993;-68
2022/03/30 00:23:09;;;;;;;;;;;;;;;11.42;59.73;100177.00;4413503;32;20011;-68
2022/03/30 00:25:35;;;;;;;;;;;;;;;11.79;58.94;100181.66;4416044;32;19946;-68
2022/03/30 00:28:02;;;;;;;;;;;;;;;11.60;59.29;100176.37;4417529;32;19965;-68
2022/03/30 00:30:27;;;;;;;;;;;;;;;11.88;58.56;100172.50;4413044;32;20004;-68
2022/03/30 00:32:53;;;;;;;;;;;;;;;11.66;59.25;100175.31;4413543;32;20404;-68
2022/03/30 00:35:19;;;;;;;;;;;;;;;11.89;58.45;100182.53;4418021;32;20392;-68
2022/03/30 00:37:45;;;;;;;;;;;;;;;11.90;58.38;100173.59;4419191;32;20391;-68
2022/03/30 00:40:13;;;;;;;;;;;;;;;11.93;57.76;100175.50;4416857;32;19958;-68
2022/03/30 00:42:38;;;;;;;;;;;;;;;11.99;58.04;100175.69;4417139;32;19999;-68
2022/03/30 00:45:08;;;;;;;;;;;;;;;11.96;58.27;100168.12;4415359;32;19953;-68
2022/03/30 00:47:34;;;;;;;;;;;;;;;11.95;58.14;100172.22;4421575;32;20294;-68
2022/03/30 00:50:00;;;;;;;;;;;;;;;11.99;57.74;100162.37;4413954;32;19993;-68
2022/03/30 00:52:26;;;;;;;;;;;;;;;11.95;57.69;100156.09;4414976;32;19965;-69
2022/03/30 00:54:52;;;;;;;;;;;;;;;11.99;57.77;100159.56;4417765;32;20000;-68
2022/03/30 00:57:19;;;;;;;;;;;;;;;12.01;57.61;100153.44;4416576;32;19967;-68
2022/03/30 00:59:45;;;;;;;;;;;;;;;11.94;57.60;100145.28;4413109;32;19957;-68
2022/03/30 01:02:10;;;;;;;;;;;;;;;11.85;57.54;100142.41;4414972;32;20676;-69
2022/03/30 01:04:39;;;;;;;;;;;;;;;11.85;58.07;100142.41;4413774;32;19958;-68
2022/03/30 01:07:05;;;;;;;;;;;;;;;11.77;57.57;100138.28;4415492;32;19949;-68
2022/03/30 01:09:31;;;;;;;;;;;;;;;11.74;57.63;100133.56;4416526;32;19989;-69
2022/03/30 01:11:57;;;;;;;;;;;;;;;11.80;57.56;100132.50;4405410;32;19957;-68
2022/03/30 01:14:23;;;;;;;;;;;;;;;11.72;57.91;100121.97;4413648;32;20436;-69
2022/03/30 01:16:49;;;;;;;;;;;;;;;11.79;57.77;100118.87;4418169;32;20284;-69
2022/03/30 01:19:15;;;;;;;;;;;;;;;11.64;58.08;100112.22;4414235;32;20019;-69
2022/03/30 01:21:41;;;;;;;;;;;;;;;11.60;58.61;100117.19;4414551;32;20009;-69
2022/03/30 01:24:08;;;;;;;;;;;;;;;11.69;58.18;100114.44;4402876;32;19958;-69
2022/03/30 01:26:34;;;;;;;;;;;;;;;11.56;58.27;100111.66;4418031;32;20042;-69
2022/03/30 01:28:59;;;;;;;;;;;;;;;11.64;58.28;100106.59;4418301;32;20334;-70
2022/03/30 01:34:12;;;;;;;;;;;;;;;11.30;59.44;100098.19;4418393;32;19965;-69
2022/03/30 01:36:38;;;;;;;;;;;;;;;11.26;59.22;100100.38;4416296;32;20221;-68
2022/03/30 01:39:05;;;;;;;;;;;;;;;11.21;59.47;100098.13;4414535;32;20001;-68
2022/03/30 01:41:31;;;;;;;;;;;;;;;11.07;59.66;100090.97;4415216;32;20007;-69
2022/03/30 01:43:57;;;;;;;;;;;;;;;10.97;59.58;100089.34;4413951;32;20361;-69
2022/03/30 01:46:23;;;;;;;;;;;;;;;11.02;59.70;100088.75;4419318;32;19993;-69
2022/03/30 01:48:49;;;;;;;;;;;;;;;11.13;59.59;100089.16;4413749;32;20385;-69
2022/03/30 01:51:14;;;;;;;;;;;;;;;11.77;57.98;100084.72;4414521;32;20335;-69
2022/03/30 01:53:41;;;;;;;;;;;;;;;11.05;59.66;100084.25;4413802;32;19957;-69
2022/03/30 01:56:06;;;;;;;;;;;;;;;10.99;59.83;100078.41;4415826;32;19984;-69
2022/03/30 01:58:32;;;;;;;;;;;;;;;11.08;59.87;100080.50;4416893;32;20564;-69
2022/03/30 02:00:58;;;;;;;;;;;;;;;11.07;59.69;100074.09;4417382;32;19973;-69
2022/03/30 02:03:28;;;;;;;;;;;;;;;11.10;59.55;100075.19;4413461;32;19956;-69
2022/03/30 02:05:54;;;;;;;;;;;;;;;11.12;59.26;100076.31;4416761;32;19993;-69
2022/03/30 02:08:20;;;;;;;;;;;;;;;11.15;59.05;100075.41;4420367;32;20001;-69
2022/03/30 02:10:46;;;;;;;;;;;;;;;11.14;58.96;100062.56;4417708;32;20060;-69
2022/03/30 02:13:11;;;;;;;;;;;;;;;11.15;58.87;100066.97;4415099;32;19972;-69
2022/03/30 02:15:38;;;;;;;;;;;;;;;11.24;58.35;100064.22;4416260;32;19961;-69
2022/03/30 02:18:05;;;;;;;;;;;;;;;11.22;58.21;100063.87;4416237;32;20018;-69
2022/03/30 02:20:31;;;;;;;;;;;;;;;11.61;57.28;100062.38;4417814;32;20355;-69
2022/03/30 02:22:57;;;;;;;;;;;;;;;11.60;57.45;100061.59;4414864;32;20062;-69
2022/03/30 02:25:23;;;;;;;;;;;;;;;11.68;57.24;100056.50;4416332;32;20342;-69
2022/03/30 02:27:49;;;;;;;;;;;;;;;11.72;56.59;100059.97;4419248;32;19994;-68
2022/03/30 02:30:15;;;;;;;;;;;;;;;11.82;56.30;100055.94;4407462;32;20379;-68
2022/03/30 02:32:42;;;;;;;;;;;;;;;12.44;55.00;100063.03;4418678;32;20043;-68
2022/03/30 02:35:08;;;;;;;;;;;;;;;12.85;53.07;100051.13;4418669;32;20418;-68
2022/03/30 02:37:34;;;;;;;;;;;;;;;13.01;52.72;100058.56;4418190;32;20009;-68
2022/03/30 02:40:00;;;;;;;;;;;;;;;12.99;52.80;100059.03;4417934;32;19961;-68
2022/03/30 02:42:25;;;;;;;;;;;;;;;13.05;52.58;100051.50;4416788;32;19953;-68
2022/03/30 02:44:51;;;;;;;;;;;;;;;12.84;53.30;100048.78;4419343;32;19957;-68
2022/03/30 02:48:17;;;;;;;;;;;;;;;12.74;53.25;100050.84;4414544;32;20017;-68
2022/03/30 02:50:03;;;;;;;;;;;;;;;12.60;53.65;100042.97;4416059;32;20472;-68
2022/03/30 02:52:29;;;;;;;;;;;;;;;11.53;56.47;100038.53;4416587;32;19989;-69
2022/03/30 02:54:54;;;;;;;;;;;;;;;11.42;57.18;100029.72;4422396;32;19968;-68
2022/03/30 02:57:20;;;;;;;;;;;;;;;11.30;57.74;100031.38;4417599;32;20002;-68
2022/03/30 02:59:47;;;;;;;;;;;;;;;11.20;57.98;100037.41;4418862;32;20002;-68
2022/03/30 03:02:13;;;;;;;;;;;;;;;11.17;58.18;100029.91;4417166;32;20020;-69
2022/03/30 03:04:39;;;;;;;;;;;;;;;11.18;58.21;100028.62;4420620;32;19968;-69
2022/03/30 03:07:07;;;;;;;;;;;;;;;11.15;58.52;100021.09;4417590;32;20005;-68
2022/03/30 03:09:33;;;;;;;;;;;;;;;11.05;58.49;100013.84;4416145;32;20276;-69
2022/03/30 03:12:00;;;;;;;;;;;;;;;11.09;58.28;100012.47;4418427;32;20344;-69
2022/03/30 03:14:27;;;;;;;;;;;;;;;11.03;58.56;100011.50;4418542;32;19965;-69
2022/03/30 03:16:53;;;;;;;;;;;;;;;11.04;58.78;100017.91;4413588;32;20387;-69
2022/03/30 03:19:18;;;;;;;;;;;;;;;11.05;58.79;100013.84;4416355;32;19958;-69
2022/03/30 03:21:45;;;;;;;;;;;;;;;10.95;59.17;100004.56;4415899;32;20425;-69
2022/03/30 03:24:10;;;;;;;;;;;;;;;10.86;59.34;100003.72;4417762;32;19993;-69
2022/03/30 03:26:37;;;;;;;;;;;;;;;11.10;58.51;100004.78;4418469;32;19988;-69
2022/03/30 03:29:03;;;;;;;;;;;;;;;11.17;58.27;100001.72;4416856;32;19989;-69
2022/03/30 03:31:29;;;;;;;;;;;;;;;11.14;58.52;99997.78;4414410;32;20007;-69
2022/03/30 03:33:55;;;;;;;;;;;;;;;10.70;60.06;99993.41;4415626;32;19985;-69
2022/03/30 03:36:20;;;;;;;;;;;;;;;10.71;60.22;99989.34;4415088;32;19973;-68
2022/03/30 03:38:46;;;;;;;;;;;;;;;11.22;58.33;99995.50;4412626;32;19949;-69
2022/03/30 03:41:12;;;;;;;;;;;;;;;10.77;60.12;99987.53;4413461;32;19957;-68
2022/03/30 03:43:38;;;;;;;;;;;;;;;10.67;60.13;99979.47;4412197;32;20244;-69
2022/03/30 03:46:04;;;;;;;;;;;;;;;11.07;59.23;99986.00;4413730;32;20166;-69
2022/03/30 03:48:30;;;;;;;;;;;;;;;10.71;60.39;99980.91;4412596;32;20379;-69
2022/03/30 03:50:56;;;;;;;;;;;;;;;10.69;60.64;99985.44;4411523;32;20036;-69
2022/03/30 03:53:21;;;;;;;;;;;;;;;10.59;60.89;99981.00;4415381;32;20240;-69
2022/03/30 03:55:47;;;;;;;;;;;;;;;10.67;60.74;99977.44;4413103;32;20309;-68
2022/03/30 03:58:13;;;;;;;;;;;;;;;10.78;60.42;99977.06;4415976;32;20044;-68
2022/03/30 04:00:39;;;;;;;;;;;;;;;10.82;60.24;99977.72;4416951;32;20028;-69
2022/03/30 04:03:05;;;;;;;;;;;;;;;11.13;59.45;99981.34;4413350;32;20011;-69
2022/03/30 04:05:31;;;;;;;;;;;;;;;10.97;59.42;99979.56;4419325;32;19960;-69
2022/03/30 04:07:56;;;;;;;;;;;;;;;10.93;60.10;99969.66;4416121;32;19961;-69
2022/03/30 04:10:22;;;;;;;;;;;;;;;11.01;59.95;99973.75;4415818;32;20003;-69
2022/03/30 04:12:55;;;;;;;;;;;;;;;10.94;59.53;99966.38;4412218;32;19961;-68
2022/03/30 04:15:20;;;;;;;;;;;;;;;11.02;59.55;99964.84;4415439;32;19949;-68
2022/03/30 04:17:46;;;;;;;;;;;;;;;10.96;60.21;99965.94;4414753;32;19967;-68
2022/03/30 04:20:13;;;;;;;;;;;;;;;11.05;59.80;99961.13;4414198;32;19993;-69
2022/03/30 04:22:39;;;;;;;;;;;;;;;11.03;59.96;99968.47;4415612;32;19949;-69
2022/03/30 04:25:06;;;;;;;;;;;;;;;11.10;59.55;99959.75;4414815;32;20379;-69
2022/03/30 04:27:31;;;;;;;;;;;;;;;11.03;59.64;99957.22;4415455;32;20008;-69
2022/03/30 04:29:57;;;;;;;;;;;;;;;11.08;59.88;99956.63;4411651;32;20213;-69
2022/03/30 04:32:23;;;;;;;;;;;;;;;11.09;59.88;99958.19;4412826;32;20018;-69
2022/03/30 04:34:48;;;;;;;;;;;;;;;11.12;59.71;99946.00;4415998;32;20007;-69
2022/03/30 04:37:14;;;;;;;;;;;;;;;11.14;59.56;99944.28;4415548;32;20428;-68
2022/03/30 04:39:40;;;;;;;;;;;;;;;11.12;59.87;99946.00;4414841;32;19953;-69
2022/03/30 04:42:06;;;;;;;;;;;;;;;11.20;59.83;99950.13;4411279;32;19987;-69
2022/03/30 04:44:32;;;;;;;;;;;;;;;11.21;60.10;99940.41;4411184;32;19961;-69
2022/03/30 04:46:57;;;;;;;;;;;;;;;11.28;59.61;99943.75;4415361;32;20031;-68
2022/03/30 04:49:23;;;;;;;;;;;;;;;11.31;59.37;99944.84;4416189;32;19988;-68
2022/03/30 04:51:49;;;;;;;;;;;;;;;11.27;60.35;99939.37;4415766;32;19969;-68
2022/03/30 04:54:15;;;;;;;;;;;;;;;11.55;59.26;99948.69;4413773;32;20243;-69
2022/03/30 04:56:41;;;;;;;;;;;;;;;11.38;59.90;99948.16;4414861;32;19998;-69
2022/03/30 04:59:07;;;;;;;;;;;;;;;11.73;59.15;99951.62;4415094;32;19946;-69
2022/03/30 05:01:32;;;;;;;;;;;;;;;11.29;59.95;99948.13;4415465;32;19976;-69
2022/03/30 05:03:58;;;;;;;;;;;;;;;11.57;59.54;99951.84;4416979;32;20030;-69
2022/03/30 05:06:24;;;;;;;;;;;;;;;11.65;59.26;99947.50;4414512;32;20001;-69
2022/03/30 05:08:49;;;;;;;;;;;;;;;11.56;59.02;99948.22;4412727;32;20003;-69
2022/03/30 05:11:15;;;;;;;;;;;;;;;11.30;59.99;99946.88;4410780;32;20335;-69
2022/03/30 05:13:40;;;;;;;;;;;;;;;11.26;59.62;99949.03;4414024;32;20351;-69
2022/03/30 05:16:07;;;;;;;;;;;;;;;11.34;59.96;99947.53;4416056;32;20312;-69
2022/03/30 05:18:33;;;;;;;;;;;;;;;11.26;59.79;99942.63;4416405;32;20015;-69
2022/03/30 05:20:58;;;;;;;;;;;;;;;11.37;59.87;99945.81;4414190;32;19961;-69
2022/03/30 05:23:24;;;;;;;;;;;;;;;11.32;59.96;99946.44;4415519;32;19997;-68
2022/03/30 05:25:49;;;;;;;;;;;;;;;11.35;60.01;99945.50;4414126;32;20175;-68
2022/03/30 05:28:16;;;;;;;;;;;;;;;11.34;59.85;99944.72;4417343;32;20287;-68
2022/03/30 05:30:41;;;;;;;;;;;;;;;11.35;59.88;99937.81;4416432;32;19972;-68
2022/03/30 05:33:07;;;;;;;;;;;;;;;11.85;57.97;99942.25;4417884;32;19998;-69
2022/03/30 05:35:33;;;;;;;;;;;;;;;11.46;59.10;99940.22;4413889;32;20374;-69
2022/03/30 05:37:59;;;;;;;;;;;;;;;11.34;60.03;99930.63;4417065;32;19965;-69
2022/03/30 05:40:25;;;;;;;;;;;;;;;11.14;60.46;99935.84;4412525;32;19950;-69
2022/03/30 05:42:51;;;;;;;;;;;;;;;11.31;60.05;99937.19;4413657;32;19992;-69
2022/03/30 05:45:16;;;;;;;;;;;;;;;11.31;60.06;99933.56;4417202;32;20020;-69
2022/03/30 05:47:43;;;;;;;;;;;;;;;11.55;59.52;99941.03;4415962;32;20045;-68
2022/03/30 05:50:09;;;;;;;;;;;;;;;11.44;59.61;99931.44;4419040;32;19980;-68
2022/03/30 05:52:34;;;;;;;;;;;;;;;11.53;59.12;99935.06;4416776;32;20002;-68
2022/03/30 05:55:00;;;;;;;;;;;;;;;11.79;59.05;99941.28;4415811;32;20043;-69
2022/03/30 05:57:26;;;;;;;;;;;;;;;11.46;59.28;99943.03;4419695;32;19953;-69
2022/03/30 05:59:52;;;;;;;;;;;;;;;11.50;60.10;99941.63;4416284;32;20002;-69
2022/03/30 06:02:18;;;;;;;;;;;;;;;11.55;59.64;99943.84;4417741;32;20577;-69
2022/03/30 06:04:49;;;;;;;;;;;;;;;11.88;58.69;99944.12;4416022;32;19984;-69
2022/03/30 06:07:15;;;;;;;;;;;;;;;11.89;58.79;99943.66;4415899;32;20347;-69
2022/03/30 06:09:40;;;;;;;;;;;;;;;11.64;59.53;99943.13;4416798;32;20475;-69
2022/03/30 06:12:07;;;;;;;;;;;;;;;11.52;60.06;99932.72;4417852;32;20296;-69
2022/03/30 06:14:33;;;;;;;;;;;;;;;11.85;58.71;99939.44;4415663;32;20436;-69
2022/03/30 06:16:58;;;;;;;;;;;;;;;11.89;58.78;99942.88;4414794;32;19954;-69
2022/03/30 06:19:24;;;;;;;;;;;;;;;11.93;58.66;99937.88;4416640;32;19999;-69
2022/03/30 06:21:50;;;;;;;;;;;;;;;11.61;59.15;99941.22;4414924;32;19949;-69
2022/03/30 06:24:16;;;;;;;;;;;;;;;11.67;59.41;99936.56;4419925;32;19967;-69
2022/03/30 06:26:41;;;;;;;;;;;;;;;11.85;58.87;99945.84;4404104;32;19953;-69
2022/03/30 06:29:07;;;;;;;;;;;;;;;11.34;59.83;99932.66;4415973;32;20028;-69
2022/03/30 06:31:33;;;;;;;;;;;;;;;11.50;59.12;99938.81;4414308;32;19957;-69
2022/03/30 06:33:59;;;;;;;;;;;;;;;11.38;60.25;99936.09;4414829;32;19975;-69
2022/03/30 06:36:25;;;;;;;;;;;;;;;11.54;59.24;99935.88;4414453;32;20282;-68
2022/03/30 06:38:50;;;;;;;;;;;;;;;11.24;60.42;99931.03;4408030;32;20414;-68
2022/03/30 06:41:17;;;;;;;;;;;;;;;11.90;59.18;99931.13;4412034;32;20360;-69
2022/03/30 06:43:46;;;;;;;;;;;;;;;12.05;58.38;99934.91;4410343;32;19966;-69
2022/03/30 06:46:13;;;;;;;;;;;;;;;11.82;59.11;99940.37;4411447;32;20412;-69
2022/03/30 06:48:39;;;;;;;;;;;;;;;11.58;58.89;99944.94;4409691;32;20344;-69
2022/03/30 06:51:04;;;;;;;;;;;;;;;11.56;59.64;99945.41;4410584;32;19954;-70
2022/03/30 06:53:30;;;;;;;;;;;;;;;11.40;60.11;99948.50;4410989;32;19961;-69
2022/03/30 06:55:56;;;;;;;;;;;;;;;11.17;59.90;99960.25;4406401;32;20387;-69
2022/03/30 06:58:23;;;;;;;;;;;;;;;11.15;59.66;99953.53;4406164;32;19997;-69
2022/03/30 07:00:50;;;;;;;;;;;;;;;10.90;59.72;99962.94;4391864;32;20030;-69
2022/03/30 07:03:16;;;;;;;;;;;;;;;10.74;60.21;99956.72;4404727;32;19961;-69
2022/03/30 07:05:41;;;;;;;;;;;;;;;10.67;60.41;99968.22;4404724;32;20007;-70
2022/03/30 07:10:54;;;;;;;;;;;;;;;10.34;61.33;99967.03;4406765;32;20027;-70
2022/03/30 07:13:22;;;;;;;;;;;;;;;10.33;61.07;99955.00;4408250;32;19993;-70
2022/03/30 07:15:47;;;;;;;;;;;;;;;10.24;61.73;99959.75;4408236;32;20324;-70
2022/03/30 07:18:13;;;;;;;;;;;;;;;9.78;62.98;99964.88;4408942;32;19961;-70
2022/03/30 07:20:39;;;;;;;;;;;;;;;10.00;63.28;99970.56;4404904;32;20436;-70
2022/03/30 07:23:04;;;;;;;;;;;;;;;9.97;62.40;99963.03;4408225;32;19981;-70
2022/03/30 07:25:31;;;;;;;;;;;;;;;9.58;63.49;99967.12;4407768;32;19972;-71
2022/03/30 07:27:59;;;;;;;;;;;;;;;9.54;64.39;99974.09;4400591;32;20001;-70
2022/03/30 07:30:25;;;;;;;;;;;;;;;8.91;66.51;99976.88;4401792;32;20288;-70
2022/03/30 07:32:52;;;;;;;;;;;;;;;9.20;66.35;99977.59;4406473;32;19997;-70
2022/03/30 07:35:19;;;;;;;;;;;;;;;9.25;65.93;99982.66;4405108;32;20003;-70
2022/03/30 07:37:45;;;;;;;;;;;;;;;9.16;66.05;99978.94;4403964;32;19995;-70
2022/03/30 07:40:12;;;;;;;;;;;;;;;9.11;66.12;99980.28;4403706;32;20010;-70
2022/03/30 07:42:38;;;;;;;;;;;;;;;9.13;66.70;99985.44;4408231;32;19977;-70
2022/03/30 07:45:04;;;;;;;;;;;;;;;9.14;66.00;99982.19;4409769;32;20023;-70
2022/03/30 07:47:31;;;;;;;;;;;;;;;9.11;65.36;99974.66;4406876;32;20038;-73
2022/03/30 07:49:57;;;;;;;;;;;;;;;9.41;64.26;99987.38;4404621;32;20034;-71
2022/03/30 07:52:23;;;;;;;;;;;;;;;8.88;65.46;99985.37;4407801;32;20020;-73
2022/03/30 07:54:52;;;;;;;;;;;;;;;8.49;65.90;99983.69;4407937;32;20354;-72
2022/03/30 07:57:25;;;;;;;;;;;;;;;8.61;65.80;99990.56;4406898;32;20337;-72
2022/03/30 07:59:54;;;;;;;;;;;;;;;8.29;65.90;99993.47;4404651;32;19993;-72
2022/03/30 08:02:20;;;;;;;;;;;;;;;8.17;66.66;99990.12;4399219;32;19963;-73
2022/03/30 08:04:46;;;;;;;;;;;;;;;8.41;66.09;99996.34;4408412;32;20754;-72
2022/03/30 08:07:12;;;;;;;;;;;;;;;8.56;65.71;100003.13;4407005;32;20004;-72
2022/03/30 08:09:38;;;;;;;;;;;;;;;8.24;66.53;99996.81;4393300;32;20151;-73
2022/03/30 08:12:04;;;;;;;;;;;;;;;8.24;66.61;99997.59;4406376;32;20012;-72
2022/03/30 08:14:30;;;;;;;;;;;;;;;7.96;66.15;100001.09;4408273;32;20025;-72
2022/03/30 08:16:55;;;;;;;;;;;;;;;8.27;65.42;100001.53;4406357;32;20012;-71
2022/03/30 08:19:21;;;;;;;;;;;;;;;8.20;65.99;100005.28;4410539;32;19996;-72
2022/03/30 08:24:34;;;;;;;;;;;;;;;8.20;66.61;100000.44;4409149;32;20390;-72
2022/03/30 08:27:00;;;;;;;;;;;;;;;8.06;66.94;100009.25;4409966;32;20005;-72
2022/03/30 08:29:26;;;;;;;;;;;;;;;8.37;66.38;100006.84;4399772;32;20107;-71
2022/03/30 08:31:52;;;;;;;;;;;;;;;8.19;67.37;100003.69;4406660;32;19962;-72
2022/03/30 08:34:19;;;;;;;;;;;;;;;8.13;67.94;100017.47;4406642;32;20112;-70
2022/03/30 08:36:45;;;;;;;;;;;;;;;8.12;68.49;100009.50;4411439;32;20046;-69
2022/03/30 08:39:13;;;;;;;;;;;;;;;8.45;66.21;100004.66;4401044;32;20035;-70
2022/03/30 08:41:40;;;;;;;;;;;;;;;8.14;66.41;100015.44;4412886;32;19996;-70
2022/03/30 08:44:06;;;;;;;;;;;;;;;8.32;66.24;100015.03;4411039;32;20325;-70
2022/03/30 08:46:32;;;;;;;;;;;;;;;8.30;66.51;100007.03;4409711;32;20052;-71
2022/03/30 08:48:58;;;;;;;;;;;;;;;8.51;66.05;100019.69;4406849;32;19974;-70
2022/03/30 08:51:24;;;;;;;;;;;;;;;7.98;68.14;100015.47;4407278;32;20127;-70
2022/03/30 08:53:49;;;;;;;;;;;;;;;7.69;68.57;100017.38;4412691;32;20382;-71
2022/03/30 08:56:17;;;;;;;;;;;;;;;7.66;68.46;100021.03;4408234;32;20421;-70
2022/03/30 08:58:43;;;;;;;;;;;;;;;7.52;68.65;100016.56;4410848;32;20072;-70
2022/03/30 09:01:09;;;;;;;;;;;;;;;7.54;69.64;100025.31;4409687;32;19997;-70
2022/03/30 09:03:36;;;;;;;;;;;;;;;7.38;68.71;100021.72;4411124;32;19989;-71
2022/03/30 09:06:03;;;;;;;;;;;;;;;7.15;70.37;100016.25;4411134;32;20414;-70
2022/03/30 09:08:29;;;;;;;;;;;;;;;7.20;69.17;100015.72;4410787;32;19966;-70
2022/03/30 09:10:55;;;;;;;;;;;;;;;7.21;69.86;100011.72;4409296;32;20027;-71
2022/03/30 09:13:21;;;;;;;;;;;;;;;7.07;70.09;100007.22;4410205;32;19992;-70
2022/03/30 09:15:48;;;;;;;;;;;;;;;7.25;70.66;100013.22;4412917;32;20045;-70
2022/03/30 09:18:15;;;;;;;;;;;;;;;7.53;70.68;100006.16;4408344;32;20005;-72
2022/03/30 09:20:46;;;;;;;;;;;;;;;7.20;71.03;100002.53;4410886;32;20035;-71
2022/03/30 09:23:12;;;;;;;;;;;;;;;7.52;69.48;100008.16;4411099;32;20070;-71
2022/03/30 09:25:38;;;;;;;;;;;;;;;7.82;69.62;100001.44;4412586;32;20343;-72
2022/03/30 09:28:04;;;;;;;;;;;;;;;8.25;69.07;99998.41;4408637;32;20020;-72
2022/03/30 09:30:29;;;;;;;;;;;;;;;8.34;68.30;99999.31;4412756;32;20659;-72
2022/03/30 09:32:57;;;;;;;;;;;;;;;8.52;68.72;100002.44;4409146;32;20324;-74
2022/03/30 09:38:04;;;;;;;;;;;;;;;8.94;66.31;100001.25;3942213;32;15867627;-72
2022/03/30 09:40:34;;;;;;;;;;;;;;;8.94;66.31;100001.25;4419591;32;20460;-73
2022/03/30 09:43:21;;;;;;;;;;;;;;;8.52;67.07;99998.84;4406402;32;20382;-72
2022/03/30 09:45:48;;;;;;;;;;;;;;;8.60;67.40;99995.41;4417897;32;20019;-72
2022/03/30 09:50:51;;;;;;;;;;;;;;;8.76;65.81;99988.94;3943425;32;15722548;-72
2022/03/30 09:53:19;;;;;;;;;;;;;;;8.76;65.81;99988.94;4419665;32;20001;-71
2022/03/30 09:56:05;;;;;;;;;;;;;;;8.31;68.53;99991.78;4422768;32;19969;-73
2022/03/30 09:58:32;;;;;;;;;;;;;;;8.34;68.45;99993.72;4421959;32;19985;-71
2022/03/30 10:01:19;;;;;;;;;;;;;;;8.65;69.14;99997.66;4422297;32;20561;-73
2022/03/30 10:06:22;;;;;;;;;;;;;;;11.41;58.93;99992.31;3944311;32;15736540;-74
2022/03/30 10:08:48;;;;;;;;;;;;;;;11.34;58.36;100003.84;4417318;32;20060;-73
2022/03/30 10:11:17;;;;;;;;;;;;;;;11.42;58.03;100001.56;4418242;32;20001;-74
2022/03/30 10:13:44;;;;;;;;;;;;;;;11.52;56.89;100005.97;4419574;32;20582;-74
2022/03/30 10:16:11;;;;;;;;;;;;;;;10.38;61.82;100005.03;4419377;32;19956;-74
2022/03/30 10:18:37;;;;;;;;;;;;;;;11.60;57.09;100005.22;4421713;32;19975;-74
2022/03/30 10:21:17;;;;;;;;;;;;;;;9.39;64.48;99998.28;4419766;32;19995;-74
2022/03/30 10:29:07;;;;;;;;;;;;;;;10.26;61.77;99997.44;3954252;32;15723174;-74
2022/03/30 10:31:33;;;;;;;;;;;;;;;10.26;61.77;99997.44;4436248;32;20075;-73
2022/03/30 10:34:18;;;;;;;;;;;;;;;10.03;62.89;99992.16;4435662;32;20001;-74
2022/03/30 10:36:58;;;;;;;;;;;;;;;10.40;62.27;99985.66;4436644;32;19968;-72
2022/03/30 10:39:27;;;;;;;;;;;;;;;10.31;61.77;99993.25;4438290;32;19991;-74
2022/03/30 10:41:53;;;;;;;;;;;;;;;10.54;61.44;99987.97;4421714;32;19953;-74
2022/03/30 10:44:41;;;;;;;;;;;;;;;10.72;61.30;99987.34;4432521;32;19997;-74
2022/03/30 10:49:44;;;;;;;;;;;;;;;11.28;59.98;99983.16;3944401;32;15723414;-72
2022/03/30 11:00:28;;;;;;;;;;;;;;;11.58;60.28;99968.28;3944661;32;15726483;-73
2022/03/30 11:03:13;;;;;;;;;;;;;;;11.58;60.28;99968.28;4420091;32;20303;-73
2022/03/30 11:05:43;;;;;;;;;;;;;;;11.09;60.46;99967.44;4426168;32;20444;-73
2022/03/30 11:08:28;;;;;;;;;;;;;;;10.97;60.95;99959.06;4424944;32;20348;-74
2022/03/30 11:10:54;;;;;;;;;;;;;;;10.85;61.16;99959.91;4423080;32;20008;-73
2022/03/30 11:13:23;;;;;;;;;;;;;;;10.86;62.03;99953.06;4422101;32;19993;-73
2022/03/30 11:16:07;;;;;;;;;;;;;;;10.97;61.53;99954.22;4423782;32;20407;-73
2022/03/30 11:18:34;;;;;;;;;;;;;;;10.85;60.99;99949.44;4422511;32;20413;-72
2022/03/30 11:21:15;;;;;;;;;;;;;;;10.75;61.35;99955.47;4422450;32;20056;-73
2022/03/30 11:24:01;;;;;;;;;;;;;;;10.71;61.26;99952.00;4423106;32;20315;-74
2022/03/30 11:26:46;;;;;;;;;;;;;;;10.81;62.02;99951.62;4424520;32;20699;-74
2022/03/30 11:29:32;;;;;;;;;;;;;;;10.80;59.66;99952.84;4422035;32;20302;-74
2022/03/30 11:31:57;;;;;;;;;;;;;;;10.74;61.77;99942.66;4422642;32;19994;-73
2022/03/30 11:34:30;;;;;;;;;;;;;;;10.98;61.90;99938.13;4423895;32;19957;-73
2022/03/30 11:36:56;;;;;;;;;;;;;;;10.82;60.02;99936.28;4424515;32;19989;-73
2022/03/30 11:39:28;;;;;;;;;;;;;;;11.03;60.63;99932.66;4425779;32;19964;-73
2022/03/30 11:41:55;;;;;;;;;;;;;;;10.89;60.97;99938.06;4418846;32;20371;-73
2022/03/30 11:47:17;;;;;;;;;;;;;;;10.33;60.95;99929.69;4423537;32;19961;-74
2022/03/30 11:49:59;;;;;;;;;;;;;;;10.31;63.18;99928.56;4423738;32;19987;-74
2022/03/30 11:52:25;;;;;;;;;;;;;;;10.89;61.57;99935.25;4424062;32;20315;-74
2022/03/30 11:54:53;;;;;;;;;;;;;;;10.39;62.66;99939.09;4425160;32;20122;-74
2022/03/30 11:57:22;;;;;;;;;;;;;;;10.66;61.36;99936.50;4421154;32;19964;-74
2022/03/30 12:00:05;;;;;;;;;;;;;;;10.61;61.92;99934.25;4420054;32;20292;-73
2022/03/30 12:02:30;;;;;;;;;;;;;;;10.78;62.44;99938.47;4420299;32;20022;-74
2022/03/30 12:04:56;;;;;;;;;;;;;;;10.65;61.38;99939.78;4422232;32;20016;-74
2022/03/30 12:07:22;;;;;;;;;;;;;;;10.66;61.94;99932.91;4423512;32;19996;-73
2022/03/30 12:09:49;;;;;;;;;;;;;;;10.75;61.19;99927.31;4422519;32;20021;-73
2022/03/30 12:12:26;;;;;;;;;;;;;;;10.87;61.47;99932.09;4409373;32;20164;-74
2022/03/30 12:14:59;;;;;;;;;;;;;;;11.09;60.32;99930.81;4397348;32;20057;-74
2022/03/30 12:17:26;;;;;;;;;;;;;;;11.28;60.30;99926.03;4413455;32;20578;-74
2022/03/30 12:19:56;;;;;;;;;;;;;;;11.28;59.26;99928.88;4411413;32;19957;-74
2022/03/30 12:22:22;;;;;;;;;;;;;;;11.14;59.16;99923.81;4414432;32;19992;-74
2022/03/30 12:24:48;;;;;;;;;;;;;;;10.86;60.76;99924.91;4414170;32;20013;-75
2022/03/30 12:27:14;;;;;;;;;;;;;;;10.66;60.42;99930.09;4411566;32;20029;-75
2022/03/30 12:29:39;;;;;;;;;;;;;;;10.55;61.27;99932.53;4410925;32;20024;-75
2022/03/30 12:32:10;;;;;;;;;;;;;;;10.65;61.77;99928.53;4411922;32;19996;-75
2022/03/30 12:34:36;;;;;;;;;;;;;;;10.58;62.31;99925.97;4399333;32;20416;-75
2022/03/30 12:37:03;;;;;;;;;;;;;;;10.53;63.00;99926.56;4412143;32;20125;-75
2022/03/30 12:39:33;;;;;;;;;;;;;;;10.76;62.15;99923.25;4412008;32;20057;-74
2022/03/30 12:42:00;;;;;;;;;;;;;;;10.63;61.07;99922.56;4397770;32;20487;-74
2022/03/30 12:44:28;;;;;;;;;;;;;;;10.71;62.12;99921.81;4413650;32;19970;-75
2022/03/30 12:46:55;;;;;;;;;;;;;;;10.39;61.99;99915.81;4413697;32;20013;-76
2022/03/30 12:49:38;;;;;;;;;;;;;;;10.28;63.00;99918.22;4413289;32;19973;-76
2022/03/30 12:52:05;;;;;;;;;;;;;;;10.37;63.63;99923.94;4413796;32;20298;-74
2022/03/30 12:54:30;;;;;;;;;;;;;;;10.29;63.82;99928.22;4413381;32;20464;-74
2022/03/30 12:56:56;;;;;;;;;;;;;;;10.09;64.91;99920.88;4411592;32;19972;-73
2022/03/30 12:59:24;;;;;;;;;;;;;;;9.97;65.42;99924.50;4406918;32;20358;-74
2022/03/30 13:01:51;;;;;;;;;;;;;;;9.90;65.17;99926.75;4390511;32;19994;-74
2022/03/30 13:04:18;;;;;;;;;;;;;;;9.98;65.01;99920.44;4411214;32;20558;-74
2022/03/30 13:07:04;;;;;;;;;;;;;;;9.90;65.42;99923.94;4410704;32;19969;-75
2022/03/30 13:09:30;;;;;;;;;;;;;;;9.85;65.91;99933.72;4411152;32;20049;-73
2022/03/30 13:11:57;;;;;;;;;;;;;;;9.65;66.46;99930.41;4395507;32;20009;-73
2022/03/30 13:14:23;;;;;;;;;;;;;;;9.50;66.47;99929.31;4409039;32;19954;-73
2022/03/30 13:16:58;;;;;;;;;;;;;;;9.62;66.45;99927.72;4411310;32;19967;-73
2022/03/30 13:19:24;;;;;;;;;;;;;;;9.61;66.20;99926.91;4409736;32;19961;-74
2022/03/30 13:21:50;;;;;;;;;;;;;;;9.61;64.95;99924.09;4393080;32;20009;-74